航空気象通報

ウインドサーファーのための航空気象通報による風予報です。

9/30-10/1の航空気象通報

2013年09月30日 20時29分27秒 | TAF
羽田空港
TAF RJTT 300839Z 3009/0112 01014KT 9999 FEW010 BKN020
TEMPO 3018/3024 3000 SHRA BR FEW005 BKN008
TEMPO 0100/0103 4000 -SHRA BR FEW005 BKN008
日本時間30日18時-1日21時:010度から14ノットの風

但し、1日03-12時の間:どきどき

静岡空港
TAF RJNS 300838Z 3009/0112 06006KT 9999 FEW030 SCT050
BECMG 3010/3012 34004KT
BECMG 0100/0103 06006KT
日本時間30日18-19時:060度から6ノットの風
19-21時:風が変化
21時-1日09時:340度から4ノットの風
09-12時:風が変化
12-21時:060度から6ノットの風


福岡空港
TAF RJFF 300838Z 3009/0112 03005KT 9999 FEW015
BECMG 3011/3013 12004KT
BECMG 0100/0103 36011KT
日本時間30日18-20時:030度から5ノットの風
20-22時:風が変化
22時-1日09時:120度から4ノットの風
09-12時:風が変化
12-21時:360度から11ノットの風


那覇空港
TAF ROAH 300837Z 3009/0112 07008KT 9999 FEW025 SCT045
BECMG 0103/0106 01014KT
日本時間30日18時-1日12時:070度から8ノットの風
12-15時:風が変化
15-21時:010度から14ノットの風


マウイのカフルイ空港
PHOG 301137Z 3012/0112 12005KT P6SM SCT025 SCT050
FM302000 07012G20KT P6SM VCSH SCT025 BKN050
FM010600 05010KT P6SM VCSH SCT025 BKN050 AMD LTD TO WX VIS AND WIND TIL 301600
日本時間30日02-10時:120度から5ノットの風

10-20時:070度から12ノット、突風20ノット
20時-1日02時:050度から10ノットの風


サイパン空港
PGSN 301125Z 3012/0112 23008KT P6SM VCSH SCT022 SCT035
マリアナ時間30日22時-1日22時:230度から8ノットの風
コメント
この記事をはてなブックマークに追加

9/29-9/30の航空気象通報

2013年09月29日 21時06分10秒 | TAF
羽田空港
TAF RJTT 290841Z 2909/3012 10012KT 9999 FEW030
BECMG 2912/2914 02010KT
日本時間29日18-21時:100度から12ノットの風
21-23時:風が変化
23時-30日21時:020度から10ノットの風


静岡空港
TAF RJNS 290840Z 2909/3012 36004KT 9999 FEW030
BECMG 2921/2924 08008KT
BECMG 3009/3012 35004KT
日本時間29日18時-30日06時:360度から4ノットの風
06-09時:風が変化
09-18時:080度から8ノットの風
18-21時:風が変化
21時:350度から4ノットの風


福岡空港
TAF RJFF 290840Z 2909/3012 12005KT 9999 -RA FEW020 SCT045
日本時間29日18時-30日21時:120度から5ノットの風


那覇空港
TAF ROAH 290838Z 2909/3012 10010KT 9999 SCT020
BECMG 3003/3006 08010KT
日本時間29日18時-30日12時:100度から10ノットの風
12-15時:風が変化
15-21時:080度から10ノットの風


マウイのカフルイ空港
PHOG 291120Z 2912/3012 05008KT P6SM VCSH FEW040
FM292000 05015G24KT P6SM FEW040 SCT060
FM300400 05009G14KT P6SM FEW035 SCT050
FM300700 05007KT P6SM FEW035 AMD LTD TO WX VIS AND WIND TIL 291600
ハワイ時間29日02-10時:050度から8ノットの風
10-18時:050度から15ノット、突風24ノット
18-21時:050度から9ノット、突風14ノット
21時-30日02時:050度から7ノットの風


サイパン空港
PGSN 291120Z 2912/3012 VRB06KT P6SM VCSH FEW018 SCT050 BKN120
FM300000 19010KT P6SM VCSH SCT018 SCT050 BKN120
マリアナ時間29日22時-30日10時:風向不定6ノットの風
10-22時:190度から10ノットの風
コメント
この記事をはてなブックマークに追加

9/28-9/29の航空気象通報

2013年09月28日 23時57分07秒 | TAF

羽田空港
TAF RJTT 280837Z 2809/2912 04008KT 9999 FEW030 SCT060
BECMG 2903/2906 07014KT
日本時間28日18時-24日12時:040度から8ノットの風
12-15時:風が変化
15-21時:070度から14ノットの風

静岡空港
TAF RJNS 280840Z 2809/2912 12006KT 9999 FEW020 SCT040
BECMG 2811/2813 35004KT
BECMG 2821/2824 08006KT
BECMG 2909/2912 34004KT
日本時間28日18-20時:120度から6ノットの風
20-22時:風が変化
22時-29日06時:350度から4ノットの風
06-09時:風が変化
09-18時:080度から6ノットの風
18-21時:風が変化
21時:340度から4ノットの風

福岡空港
TAF RJFF 280838Z 2809/2912 14006KT 9999 FEW030
日本時間28日18時-29日21時:140度から6ノットの風

那覇空港
TAF ROAH 280838Z 2809/2912 11009KT 9999 FEW015 BKN025
TEMPO 2809/2811 FEW015 FEW025CB BKN030
TEMPO 2900/2903 4000 SHRA FEW010 BKN020 FEW025CB
日本時間28日18時-29日21時:110度から9ノットの風

但し、09-12時の間:ときどき

マウイのカフルイ空港
PHOG 281133Z 2812/2912 05012KT P6SM FEW035 SCT050
FM282000 05020G30KT P6SM FEW040 SCT050
FM290500 05014G24KT P6SM FEW035 SCT050 AMD LTD TO WX VIS AND WIND TIL 281600
ハワイ時間28日02-10時:050度から12ノットの風
10-19時:050度から20ノット、突風30ノット
19時-29日02時:050度から14ノット、突風24ノット

サイパン空港
PGSN 281120Z 2812/2912 VRB05KT P6SM VCSH FEW020 SCT120
マリアナ時間28日22時-29日22時:風向不定5ノットの風

コメント
この記事をはてなブックマークに追加

9/27-9/28の航空気象通報

2013年09月27日 21時06分32秒 | TAF
羽田空港
TAF RJTT 270836Z 2709/2812 08014KT 9999 FEW030
BECMG 2713/2715 03008KT
BECMG 2800/2803 08008KT
日本時間27日18-22時:080度から14ノットの風
22-24時:風が変化
28日00-09時:030度から8ノットの風
09-12時:風が変化
12-21時:080度から8ノットの風


静岡空港
TAF RJNS 270838Z 2709/2812 15006KT 9999 FEW020 SCT050
BECMG 2712/2714 35004KT
BECMG 2800/2803 10006KT
日本時間27日18-21時:150度から6ノットの風
21-23時:風が変化
23時-28日09時:350度から4ノットの風
09-12時:風が変化
12-21時:100度から6ノットの風


福岡空港
TAF RJFF 270839Z 2709/2812 14006KT 9999 FEW030
BECMG 2800/2803 36005KT
BECMG 2809/2812 12008KT
日本時間27日18時-28日09時:140度から6ノットの風
09-12時:風が変化
12-18時:360度から5ノットの風
18-21時:風が変化
21時:120度から8ノットの風


那覇空港
TAF ROAH 270837Z 2709/2812 07010KT 9999 FEW020 SCT030
BECMG 2721/2724 10010KT
TEMPO 2721/2724 4000 SHRA FEW010 BKN020 FEW025CB
日本時間27日18時-28日06時:070度から10ノットの風
06-09時:風が変化
09-21時:100度から10ノットの風

但し、28日06-09時の間:どきどき

マウイのカフルイ空港
PHOG 271120Z 2712/2812 06006KT P6SM FEW050 BKN250
FM272000 06016G24KT P6SM SCT050 BKN250
FM280400 06010KT P6SM SCT050 BKN250 AMD LTD TO WX VIS AND WIND TIL 271600
ハワイ時間27日02-10時:060度から6ノットの風
10-18時:060度から16ノット、突風24ノット
18時-28日02時:060度から10ノットの風


サイパン空港
PGSN 271122Z 2712/2812 VRB06KT P6SM VCSH FEW018 SCT050 BKN140
TEMPO 2712/2714 5SM SHRA SCT016CB BKN025
マリアナ時間27日22時-28日22時:風向不定6ノットの風

但し、27日22-24時の間:どきどき
コメント
この記事をはてなブックマークに追加

9/26-9/27の航空気象通報

2013年09月26日 21時54分57秒 | TAF
羽田空港
TAF RJTT 260838Z 2609/2712 35016KT 9999 FEW030
TEMPO 2609/2613 35022G32KT
BECMG 2703/2706 07012KT
日本時間26日18時-27日12時:350度から16ノットの風
但し、26日18-22時の間:どきどき350度から22ノット、突風32ノット
27日12-15時:風が変化
15-21時:070度から12ノットの風


静岡空港
TAF RJNS 260839Z 2609/2712 14010KT 9999 FEW025 BKN050
BECMG 2611/2613 31004KT
BECMG 2621/2624 14006KT
日本時間26日18-20時:140度から10ノットの風
20-22時:風が変化
22時-27日06時:310度から4ノットの風
06-09時:風が変化
09-21時:140度から6ノットの風


福岡空港
TAF RJFF 260839Z 2609/2712 02010KT 9999 FEW030
BECMG 2613/2615 12005KT
BECMG 2703/2706 03010KT
日本時間26日18-22時:020度から10ノットの風
22-24時:風が変化
27日00-12時:120度から5ノットの風
12-15時:風が変化
15-21時:030度から10ノットの風


那覇空港
TAF ROAH 260836Z 2609/2712 02012KT 9999 FEW025
日本時間26日18時-27日21時:020度から12ノットの風


マウイのカフルイ空港
PHOG 261120Z 2612/2712 07009KT P6SM VCSH FEW035 BKN060
FM262000 05014G22KT P6SM FEW035 SCT050
FM270400 06010KT P6SM FEW035 FEW050 AMD LTD TO WX VIS AND WIND TIL 261600
ハワイ時間26日02-10時:070度から9ノットの風

10-18時:050度から14ノット、突風22ノット
18時-27日02時:060度から10ノットの風


サイパン空港
PGSN 261120Z 2612/2712 VRB05KT P6SM VCSH FEW020 FEW060
マリアナ時間26日22時-27日22時:風向不定5ノットの風
コメント
この記事をはてなブックマークに追加